Time;durP1;ratioP1;P1;durP2;ratioP2;P2;SDS_P1;SDS_P2;PMS_P1;PMS_P2;Temp;Humidity;BMP_temperature;BMP_pressure;BME280_temperature;BME280_humidity;BME280_pressure;Samples;Min_cycle;Max_cycle;Signal;HPM_P1;HPM_P2
2023/07/25 00:01:12;;;;;;;3.40;3.30;;;15.00;99.90;;;;;;5030685;28;20484;-67
2023/07/25 00:03:39;;;;;;;4.17;4.07;;;14.90;99.90;;;;;;5025888;28;20472;-67
2023/07/25 00:06:06;;;;;;;3.60;3.50;;;14.90;99.90;;;;;;5025641;28;20539;-68
2023/07/25 00:08:33;;;;;;;3.60;3.50;;;14.90;99.90;;;;;;5029564;28;20831;-68
2023/07/25 00:11:00;;;;;;;3.60;3.50;;;14.90;99.90;;;;;;5030738;28;20831;-67
2023/07/25 00:13:27;;;;;;;3.50;3.40;;;14.90;99.90;;;;;;5027025;28;20476;-67
2023/07/25 00:15:55;;;;;;;3.77;3.67;;;14.90;99.90;;;;;;5026894;28;21072;-67
2023/07/25 00:18:22;;;;;;;3.50;3.40;;;14.90;99.90;;;;;;5022271;28;20471;-67
2023/07/25 00:20:50;;;;;;;3.47;3.37;;;14.90;99.90;;;;;;5026578;28;20530;-67
2023/07/25 00:23:16;;;;;;;4.17;4.07;;;14.90;99.90;;;;;;5030590;28;20460;-68
2023/07/25 00:25:44;;;;;;;3.60;3.50;;;15.00;99.90;;;;;;5023839;28;20484;-68
2023/07/25 00:28:12;;;;;;;3.40;3.30;;;15.00;99.90;;;;;;5031129;28;20464;-67
2023/07/25 00:30:39;;;;;;;3.93;3.83;;;15.00;99.90;;;;;;5020911;28;20896;-68
2023/07/25 00:33:07;;;;;;;3.90;3.80;;;15.10;99.90;;;;;;5029443;28;20457;-66
2023/07/25 00:35:35;;;;;;;3.67;3.57;;;15.00;99.90;;;;;;5029761;28;20460;-67
2023/07/25 00:38:03;;;;;;;3.63;3.53;;;15.00;99.90;;;;;;5030227;28;20463;-67
2023/07/25 00:40:31;;;;;;;3.33;3.23;;;15.00;99.90;;;;;;5029666;28;20460;-67
2023/07/25 00:42:59;;;;;;;3.40;3.30;;;15.00;99.90;;;;;;5021529;28;20472;-67
2023/07/25 00:45:26;;;;;;;3.70;3.60;;;15.00;99.90;;;;;;5025430;28;20508;-67
2023/07/25 00:47:55;;;;;;;3.50;3.40;;;15.00;99.90;;;;;;5030971;28;20788;-68
2023/07/25 00:50:23;;;;;;;3.30;3.20;;;15.10;99.90;;;;;;5026533;28;20518;-66
2023/07/25 00:52:51;;;;;;;3.30;3.20;;;15.10;99.90;;;;;;5028599;28;20460;-67
2023/07/25 00:55:18;;;;;;;3.50;3.40;;;15.10;99.90;;;;;;5022041;28;20497;-68
2023/07/25 00:57:46;;;;;;;3.60;3.50;;;15.10;99.90;;;;;;5022148;28;20461;-68
2023/07/25 01:00:14;;;;;;;4.07;3.97;;;15.10;99.90;;;;;;5028924;28;20848;-67
2023/07/25 01:02:42;;;;;;;4.10;4.00;;;15.10;99.90;;;;;;5025823;28;20472;-67
2023/07/25 01:05:10;;;;;;;4.23;4.13;;;15.20;99.90;;;;;;5029834;28;20587;-67
2023/07/25 01:07:40;;;;;;;3.80;3.70;;;15.10;99.90;;;;;;5021958;28;20460;-66
2023/07/25 01:10:08;;;;;;;4.10;4.00;;;15.10;99.90;;;;;;5029881;28;20480;-68
2023/07/25 01:12:35;;;;;;;4.07;3.97;;;15.20;99.90;;;;;;5018398;28;20496;-67
2023/07/25 01:15:02;;;;;;;4.23;4.13;;;15.20;99.90;;;;;;5022227;28;20496;-66
2023/07/25 01:17:30;;;;;;;3.97;3.87;;;15.20;99.90;;;;;;5028050;28;20460;-67
2023/07/25 01:19:59;;;;;;;3.63;3.53;;;15.10;99.90;;;;;;5015866;28;20465;-68
2023/07/25 01:22:29;;;;;;;3.70;3.60;;;15.10;99.90;;;;;;5028962;28;20453;-67
2023/07/25 01:24:59;;;;;;;4.40;4.30;;;15.00;99.90;;;;;;5023571;28;20496;-68
2023/07/25 01:27:26;;;;;;;4.30;4.20;;;15.10;99.90;;;;;;5029664;28;20457;-67
2023/07/25 01:29:52;;;;;;;3.60;3.50;;;15.10;99.90;;;;;;5027576;28;20475;-68
2023/07/25 01:32:19;;;;;;;4.60;4.40;;;15.00;99.90;;;;;;5017076;28;20469;-67
2023/07/25 01:34:46;;;;;;;3.40;3.30;;;15.00;99.90;;;;;;5029636;28;21101;-68
2023/07/25 01:37:13;;;;;;;3.70;3.40;;;15.00;99.90;;;;;;5026612;28;20472;-67
2023/07/25 01:39:42;;;;;;;3.40;3.30;;;14.90;99.90;;;;;;5023566;28;20460;-66
2023/07/25 01:42:11;;;;;;;3.10;3.00;;;14.90;99.90;;;;;;5027191;28;20986;-68
2023/07/25 01:44:38;;;;;;;3.70;3.60;;;14.90;99.90;;;;;;5030197;28;20492;-68
2023/07/25 01:47:06;;;;;;;3.70;3.60;;;14.90;99.90;;;;;;5029399;28;20461;-66
2023/07/25 01:49:33;;;;;;;3.70;3.60;;;14.90;99.90;;;;;;5020194;28;20567;-68
2023/07/25 01:52:00;;;;;;;3.70;3.60;;;14.90;99.90;;;;;;5021933;28;20484;-67
2023/07/25 01:54:27;;;;;;;3.67;3.57;;;14.90;99.90;;;;;;5027207;28;20476;-68
2023/07/25 01:56:54;;;;;;;4.03;3.93;;;14.90;99.90;;;;;;5029020;28;20472;-68
2023/07/25 01:59:22;;;;;;;3.10;3.00;;;14.80;99.90;;;;;;5027810;28;20453;-66
2023/07/25 02:01:50;;;;;;;4.00;3.90;;;14.80;99.90;;;;;;5021221;28;20953;-67
2023/07/25 02:04:17;;;;;;;4.10;4.00;;;14.80;99.90;;;;;;5028722;28;20459;-68
2023/07/25 02:06:45;;;;;;;3.80;3.70;;;14.90;99.90;;;;;;5028010;28;20499;-67
2023/07/25 02:09:12;;;;;;;3.83;3.73;;;14.90;99.90;;;;;;5022540;28;20494;-67
2023/07/25 02:11:40;;;;;;;3.40;3.30;;;14.90;99.90;;;;;;5024080;28;20453;-68
2023/07/25 02:14:08;;;;;;;3.17;3.07;;;14.90;99.90;;;;;;5028348;28;20504;-68
2023/07/25 02:16:37;;;;;;;3.20;3.10;;;14.70;99.90;;;;;;5028785;28;20495;-67
2023/07/25 02:19:04;;;;;;;3.60;3.50;;;14.70;99.90;;;;;;5017202;28;20830;-67
2023/07/25 02:21:31;;;;;;;3.70;3.60;;;14.80;99.90;;;;;;5028321;28;20465;-68
2023/07/25 02:23:59;;;;;;;3.50;3.40;;;14.80;99.90;;;;;;5024198;28;20464;-67
2023/07/25 02:26:26;;;;;;;3.90;3.70;;;14.80;99.90;;;;;;5025202;28;20487;-68
2023/07/25 02:28:53;;;;;;;4.00;3.90;;;14.80;99.90;;;;;;5024145;28;20838;-68
2023/07/25 02:31:20;;;;;;;3.20;3.10;;;14.80;99.90;;;;;;5021932;28;20966;-68
2023/07/25 02:33:49;;;;;;;3.53;3.43;;;14.70;99.90;;;;;;5027672;28;20472;-66
2023/07/25 02:36:16;;;;;;;3.90;3.80;;;14.70;99.90;;;;;;5026597;28;20464;-67
2023/07/25 02:38:43;;;;;;;3.40;3.30;;;14.70;99.90;;;;;;5026036;28;20465;-66
2023/07/25 02:41:10;;;;;;;4.07;3.97;;;14.70;99.90;;;;;;5027457;28;20480;-66
2023/07/25 02:43:38;;;;;;;3.10;3.00;;;14.70;99.90;;;;;;5021272;28;21285;-68
2023/07/25 02:46:05;;;;;;;3.50;3.40;;;14.60;99.90;;;;;;5027401;28;20499;-67
2023/07/25 02:48:33;;;;;;;4.10;3.87;;;14.60;99.90;;;;;;5023993;28;20519;-67
2023/07/25 02:51:01;;;;;;;3.63;3.53;;;14.60;99.90;;;;;;5027479;28;20460;-67
2023/07/25 02:53:29;;;;;;;3.40;3.30;;;14.50;99.90;;;;;;5024669;28;20484;-68
2023/07/25 02:55:55;;;;;;;5.37;4.83;;;14.50;99.90;;;;;;5025205;28;20468;-68
2023/07/25 02:58:23;;;;;;;4.03;3.93;;;14.50;99.90;;;;;;5015230;28;20469;-67
2023/07/25 03:00:51;;;;;;;3.80;3.70;;;14.50;99.90;;;;;;5026115;28;20483;-67
2023/07/25 03:03:18;;;;;;;4.00;3.70;;;14.50;99.90;;;;;;5027396;28;20691;-67
2023/07/25 03:05:47;;;;;;;3.90;3.80;;;14.40;99.90;;;;;;5027024;28;20502;-68
2023/07/25 03:08:16;;;;;;;3.80;3.70;;;14.40;99.90;;;;;;5025190;28;20484;-67
2023/07/25 03:10:42;;;;;;;3.83;3.73;;;14.40;99.90;;;;;;5027080;28;20449;-68
2023/07/25 03:13:09;;;;;;;3.87;3.77;;;14.40;99.90;;;;;;5019206;28;20460;-68
2023/07/25 03:15:37;;;;;;;3.70;3.60;;;14.40;99.90;;;;;;5027823;28;21371;-68
2023/07/25 03:18:05;;;;;;;4.63;4.53;;;14.30;99.90;;;;;;5022152;28;20539;-67
2023/07/25 03:20:32;;;;;;;4.23;4.13;;;14.40;99.90;;;;;;5022186;28;20463;-68
2023/07/25 03:22:59;;;;;;;4.57;4.47;;;14.40;99.90;;;;;;5027007;28;20456;-68
2023/07/25 03:25:27;;;;;;;4.20;4.10;;;14.40;99.90;;;;;;5023523;28;20991;-67
2023/07/25 03:27:54;;;;;;;4.30;4.20;;;14.40;99.90;;;;;;5020616;28;20461;-66
2023/07/25 03:30:22;;;;;;;4.03;3.93;;;14.40;99.90;;;;;;5020497;28;20512;-67
2023/07/25 03:32:49;;;;;;;5.80;5.53;;;14.30;99.90;;;;;;5022301;28;20464;-67
2023/07/25 03:35:17;;;;;;;3.73;3.63;;;14.30;99.90;;;;;;5026600;28;20471;-66
2023/07/25 03:37:44;;;;;;;3.60;3.50;;;14.30;99.90;;;;;;5025115;28;20676;-68
2023/07/25 03:40:11;;;;;;;4.03;3.93;;;14.20;99.90;;;;;;5027951;28;20999;-68
2023/07/25 03:42:39;;;;;;;5.50;5.30;;;14.20;99.90;;;;;;5022789;28;20472;-67
2023/07/25 03:45:07;;;;;;;4.27;4.17;;;14.20;99.90;;;;;;5019103;28;20457;-67
2023/07/25 03:47:49;;;;;;;4.43;4.33;;;14.20;99.90;;;;;;5026526;28;20857;-68
2023/07/25 03:50:15;;;;;;;4.70;4.50;;;14.20;99.90;;;;;;5021726;28;20457;-67
2023/07/25 03:52:42;;;;;;;4.60;4.50;;;14.10;99.90;;;;;;5025016;28;20464;-67
2023/07/25 03:55:10;;;;;;;4.43;4.33;;;14.10;99.90;;;;;;5024886;28;20835;-67
2023/07/25 03:57:38;;;;;;;4.40;4.30;;;14.00;99.90;;;;;;5026984;28;20860;-67
2023/07/25 04:00:06;;;;;;;4.53;4.43;;;13.90;99.90;;;;;;5019062;28;20994;-68
2023/07/25 04:02:33;;;;;;;4.83;4.73;;;13.90;99.90;;;;;;5027033;28;20956;-68
2023/07/25 04:05:00;;;;;;;4.40;4.30;;;13.80;99.90;;;;;;5020548;28;20461;-67
2023/07/25 04:07:28;;;;;;;4.83;4.73;;;13.70;99.90;;;;;;5020283;28;20464;-67
2023/07/25 04:09:54;;;;;;;4.80;4.70;;;13.60;99.90;;;;;;5026646;28;20468;-68
2023/07/25 04:12:21;;;;;;;4.70;4.60;;;13.60;99.90;;;;;;5023283;28;20465;-68
2023/07/25 04:14:51;;;;;;;4.60;4.50;;;13.50;99.90;;;;;;5017520;28;20501;-67
2023/07/25 04:17:17;;;;;;;5.00;4.90;;;13.50;99.90;;;;;;5026489;28;20465;-66
2023/07/25 04:19:44;;;;;;;5.00;4.90;;;13.50;99.90;;;;;;5019263;28;21277;-67
2023/07/25 04:22:12;;;;;;;4.83;4.73;;;13.50;99.90;;;;;;5025655;28;20460;-68
2023/07/25 04:24:39;;;;;;;4.83;4.73;;;13.50;99.90;;;;;;5026555;28;21000;-67
2023/07/25 04:27:06;;;;;;;5.20;5.00;;;13.50;99.90;;;;;;5018468;28;20495;-67
2023/07/25 04:29:33;;;;;;;5.17;4.97;;;13.60;99.90;;;;;;5025907;28;20915;-67
2023/07/25 04:32:02;;;;;;;4.33;4.23;;;13.60;99.90;;;;;;5019546;28;20468;-68
2023/07/25 04:34:29;;;;;;;4.87;4.67;;;13.60;99.90;;;;;;5026142;28;20812;-66
2023/07/25 04:36:56;;;;;;;13.60;5.10;;;13.60;99.90;;;;;;5023133;28;20874;-68
2023/07/25 04:39:23;;;;;;;4.47;4.07;;;13.70;99.90;;;;;;5025977;28;20999;-68
2023/07/25 04:41:50;;;;;;;4.83;4.63;;;13.60;99.90;;;;;;5028485;28;20795;-68
2023/07/25 04:44:17;;;;;;;3.60;3.50;;;13.70;99.90;;;;;;5025166;28;20456;-67
2023/07/25 04:46:44;;;;;;;4.67;4.57;;;13.70;99.90;;;;;;5021422;28;20485;-67
2023/07/25 04:49:13;;;;;;;4.00;3.90;;;13.80;99.90;;;;;;5026348;28;20955;-68
2023/07/25 04:51:40;;;;;;;4.30;4.10;;;13.90;99.90;;;;;;5020031;28;20468;-67
2023/07/25 04:54:08;;;;;;;3.70;3.60;;;14.00;99.90;;;;;;5029907;28;20515;-68
2023/07/25 04:56:34;;;;;;;3.70;3.60;;;14.10;99.90;;;;;;5031060;28;20487;-66
2023/07/25 04:59:01;;;;;;;4.30;4.10;;;14.20;99.90;;;;;;5022436;28;20463;-68
2023/07/25 05:01:28;;;;;;;4.20;4.10;;;14.30;99.90;;;;;;5026311;28;20567;-68
2023/07/25 05:03:55;;;;;;;4.23;4.03;;;14.30;99.90;;;;;;5019056;28;20464;-67
2023/07/25 05:06:24;;;;;;;4.00;3.80;;;14.20;99.90;;;;;;5027326;28;20488;-66
2023/07/25 05:08:52;;;;;;;3.80;3.70;;;14.30;99.90;;;;;;5028070;28;20459;-67
2023/07/25 05:11:19;;;;;;;4.20;4.00;;;14.40;99.90;;;;;;5022137;28;20551;-67
2023/07/25 05:13:46;;;;;;;3.83;3.63;;;14.40;99.90;;;;;;5024130;28;20475;-67
2023/07/25 05:16:13;;;;;;;9.03;4.00;;;14.40;99.90;;;;;;5024255;28;20853;-66
2023/07/25 05:18:40;;;;;;;3.90;3.80;;;14.50;99.90;;;;;;5022192;28;20460;-67
2023/07/25 05:21:08;;;;;;;7.23;6.73;;;14.60;99.90;;;;;;5019736;28;20840;-68
2023/07/25 05:23:38;;;;;;;4.73;4.63;;;14.60;99.90;;;;;;5020043;28;20963;-67
2023/07/25 05:26:04;;;;;;;5.27;4.87;;;14.70;99.90;;;;;;5026142;28;20499;-67
2023/07/25 05:28:31;;;;;;;6.13;5.90;;;14.80;99.90;;;;;;5023377;28;20514;-68
2023/07/25 05:30:58;;;;;;;5.73;5.53;;;14.80;99.90;;;;;;5024454;28;20457;-67
2023/07/25 05:33:25;;;;;;;5.33;5.23;;;14.80;99.90;;;;;;5022109;28;20527;-67
2023/07/25 05:36:00;;;;;;;7.00;6.70;;;14.90;99.90;;;;;;5019922;28;20638;-66
2023/07/25 05:38:28;;;;;;;6.00;5.80;;;14.80;99.90;;;;;;5028006;28;20475;-67
2023/07/25 05:40:57;;;;;;;6.30;6.10;;;14.80;99.90;;;;;;5026173;28;20457;-66
2023/07/25 05:43:24;;;;;;;6.20;6.00;;;14.90;99.90;;;;;;5024027;28;20479;-66
2023/07/25 05:45:51;;;;;;;6.80;6.60;;;14.90;99.90;;;;;;5020395;28;20503;-67
2023/07/25 05:48:18;;;;;;;7.70;7.40;;;14.90;99.90;;;;;;5027234;28;20523;-67
2023/07/25 05:50:50;;;;;;;6.93;6.73;;;15.00;99.90;;;;;;5026484;28;20465;-68
2023/07/25 05:53:17;;;;;;;7.30;7.10;;;15.10;99.90;;;;;;5021497;28;20460;-68
2023/07/25 05:55:45;;;;;;;7.37;7.17;;;15.20;99.90;;;;;;5023388;28;20830;-67
2023/07/25 05:58:14;;;;;;;6.93;6.73;;;15.20;99.90;;;;;;5027755;28;20951;-67
2023/07/25 06:00:41;;;;;;;7.43;7.23;;;15.20;99.90;;;;;;5024484;28;20572;-67
2023/07/25 06:03:11;;;;;;;7.20;7.00;;;15.40;99.90;;;;;;5025868;28;20947;-69
2023/07/25 06:05:38;;;;;;;8.40;8.10;;;15.40;99.90;;;;;;5021361;28;20538;-68
2023/07/25 06:08:07;;;;;;;7.20;7.00;;;15.40;99.90;;;;;;5020289;28;20478;-68
2023/07/25 06:10:34;;;;;;;8.60;8.30;;;15.40;99.90;;;;;;5027928;28;20518;-67
2023/07/25 06:13:04;;;;;;;8.13;7.83;;;15.50;99.90;;;;;;5026964;28;20457;-68
2023/07/25 06:15:34;;;;;;;7.60;7.40;;;15.60;99.90;;;;;;5024465;28;20491;-67
2023/07/25 06:18:01;;;;;;;7.27;7.07;;;15.60;99.90;;;;;;5028911;28;20468;-67
2023/07/25 06:20:27;;;;;;;8.33;8.03;;;15.70;99.90;;;;;;5023275;28;20471;-67
2023/07/25 06:22:55;;;;;;;8.70;8.40;;;15.80;99.90;;;;;;5024355;28;20473;-67
2023/07/25 06:25:21;;;;;;;9.07;8.77;;;15.90;99.90;;;;;;5028971;28;20515;-67
2023/07/25 06:27:48;;;;;;;10.67;9.93;;;16.00;99.90;;;;;;5020864;28;20493;-67
2023/07/25 06:30:15;;;;;;;8.70;8.40;;;16.00;99.90;;;;;;5019536;28;20875;-67
2023/07/25 06:32:43;;;;;;;9.90;9.57;;;16.10;99.90;;;;;;5028133;28;20515;-67
2023/07/25 06:35:10;;;;;;;9.70;9.40;;;16.20;99.90;;;;;;5023059;28;20468;-67
2023/07/25 06:37:38;;;;;;;14.77;10.90;;;16.30;99.90;;;;;;5027838;28;20947;-67
2023/07/25 06:40:06;;;;;;;11.50;11.00;;;16.40;99.90;;;;;;5019393;28;20472;-67
2023/07/25 06:42:33;;;;;;;11.30;10.70;;;16.50;99.90;;;;;;5018234;28;20826;-67
2023/07/25 06:45:00;;;;;;;10.70;10.30;;;16.70;99.90;;;;;;5025319;28;20590;-66
2023/07/25 06:47:27;;;;;;;11.50;11.10;;;17.00;99.90;;;;;;5027217;28;20496;-68
2023/07/25 06:49:55;;;;;;;13.63;12.77;;;17.30;99.90;;;;;;5026256;28;21018;-67
2023/07/25 06:52:22;;;;;;;12.40;11.90;;;17.40;99.90;;;;;;5020723;28;20453;-66
2023/07/25 06:54:49;;;;;;;12.30;11.80;;;17.50;99.90;;;;;;5025670;28;20484;-66
2023/07/25 06:57:16;;;;;;;12.63;12.13;;;17.70;99.90;;;;;;5026354;28;20484;-66
2023/07/25 06:59:43;;;;;;;12.70;12.20;;;17.80;99.90;;;;;;5020878;28;20514;-67
2023/07/25 07:02:10;;;;;;;13.40;12.90;;;18.10;99.90;;;;;;5026709;28;20480;-67
2023/07/25 07:04:37;;;;;;;19.97;14.10;;;18.30;99.90;;;;;;5024727;28;20461;-67
2023/07/25 07:07:06;;;;;;;13.50;13.00;;;18.00;99.90;;;;;;5024512;28;20929;-67
2023/07/25 07:09:34;;;;;;;13.63;13.13;;;18.10;99.90;;;;;;5016590;28;20519;-67
2023/07/25 07:12:03;;;;;;;14.30;13.70;;;18.20;99.90;;;;;;5019972;28;20587;-67
2023/07/25 07:14:30;;;;;;;14.20;13.60;;;18.20;99.90;;;;;;5024000;28;20495;-66
2023/07/25 07:16:56;;;;;;;16.97;15.40;;;18.20;99.90;;;;;;5026670;28;20804;-67
2023/07/25 07:19:23;;;;;;;14.10;13.50;;;18.20;99.90;;;;;;5019458;28;20866;-66
2023/07/25 07:21:50;;;;;;;33.00;14.30;;;18.00;99.90;;;;;;5021087;28;20917;-65
2023/07/25 07:24:19;;;;;;;13.83;13.23;;;18.00;99.90;;;;;;5027904;28;20882;-66
2023/07/25 07:26:46;;;;;;;13.93;13.33;;;18.10;99.90;;;;;;5022323;28;20590;-66
2023/07/25 07:29:13;;;;;;;14.93;13.70;;;18.20;99.90;;;;;;5025591;28;20846;-66
2023/07/25 07:31:40;;;;;;;13.90;13.30;;;18.20;99.90;;;;;;5022016;28;20529;-66
2023/07/25 07:34:11;;;;;;;13.97;13.37;;;18.30;99.90;;;;;;5024219;28;20460;-66
2023/07/25 07:36:37;;;;;;;14.03;13.43;;;18.40;99.90;;;;;;5005577;28;20734;-66
2023/07/25 07:39:04;;;;;;;14.60;14.00;;;18.40;99.90;;;;;;5021098;28;21043;-65
2023/07/25 07:41:33;;;;;;;14.20;13.60;;;18.50;99.90;;;;;;5021499;28;20464;-67
2023/07/25 07:44:00;;;;;;;14.30;13.70;;;18.50;99.90;;;;;;5016765;28;20497;-66
2023/07/25 07:46:28;;;;;;;14.30;13.70;;;18.20;99.90;;;;;;5025217;28;20488;-67
2023/07/25 07:48:55;;;;;;;13.80;13.20;;;18.00;99.90;;;;;;5018998;28;20461;-66
2023/07/25 07:51:21;;;;;;;14.43;13.83;;;18.00;99.90;;;;;;5019814;28;20464;-67
2023/07/25 07:53:48;;;;;;;14.40;13.80;;;17.90;99.90;;;;;;5024498;28;20464;-66
2023/07/25 07:56:15;;;;;;;13.87;13.27;;;18.00;99.90;;;;;;5023967;28;20792;-67
2023/07/25 07:58:44;;;;;;;13.50;13.00;;;17.90;99.90;;;;;;5021597;28;20461;-67
2023/07/25 08:01:15;;;;;;;13.50;13.00;;;18.00;99.90;;;;;;5015238;28;20489;-67
2023/07/25 08:03:43;;;;;;;14.03;13.43;;;18.10;99.90;;;;;;5018686;28;20461;-67
2023/07/25 08:06:10;;;;;;;14.23;13.63;;;18.20;99.90;;;;;;5023819;28;20468;-67
2023/07/25 08:08:37;;;;;;;14.73;14.03;;;18.30;99.90;;;;;;5022890;28;20584;-67
2023/07/25 08:11:04;;;;;;;13.90;13.30;;;18.20;99.90;;;;;;5021705;28;20472;-66
2023/07/25 08:13:31;;;;;;;14.87;14.17;;;18.30;99.90;;;;;;5023838;28;20456;-66
2023/07/25 08:15:59;;;;;;;14.10;13.50;;;18.30;99.90;;;;;;5023473;28;20547;-68
2023/07/25 08:18:26;;;;;;;14.00;13.40;;;18.40;99.90;;;;;;5018487;28;21141;-67
2023/07/25 08:20:57;;;;;;;14.33;13.73;;;18.50;99.90;;;;;;5024769;28;20572;-67
2023/07/25 08:23:24;;;;;;;13.90;13.30;;;18.50;99.90;;;;;;5029073;28;20465;-68
2023/07/25 08:25:51;;;;;;;14.20;13.60;;;18.40;99.90;;;;;;5025809;28;20464;-68
2023/07/25 08:28:18;;;;;;;14.30;13.70;;;18.60;99.90;;;;;;5027233;28;20771;-67
2023/07/25 08:30:45;;;;;;;15.30;14.50;;;18.60;99.90;;;;;;5028623;28;20479;-66
2023/07/25 08:33:15;;;;;;;14.77;14.17;;;19.00;99.90;;;;;;5018587;28;21193;-67
2023/07/25 08:35:42;;;;;;;15.20;14.50;;;19.00;99.90;;;;;;5026969;28;20457;-68
2023/07/25 08:38:08;;;;;;;15.17;14.57;;;18.90;99.90;;;;;;5029121;28;20457;-68
2023/07/25 08:40:35;;;;;;;14.70;14.10;;;18.60;99.90;;;;;;5027789;28;20882;-67
2023/07/25 08:43:08;;;;;;;14.60;14.00;;;18.80;99.90;;;;;;5026551;28;20470;-68
2023/07/25 08:45:36;;;;;;;15.10;14.50;;;19.00;99.90;;;;;;5023056;28;20474;-68
2023/07/25 08:48:05;;;;;;;15.40;14.60;;;19.50;99.90;;;;;;5027894;28;20490;-68
2023/07/25 08:50:35;;;;;;;14.73;14.13;;;19.70;99.90;;;;;;5024153;28;20452;-67
2023/07/25 08:53:08;;;;;;;14.80;14.20;;;20.00;99.90;;;;;;5025638;28;20472;-68
2023/07/25 08:55:36;;;;;;;14.87;14.27;;;20.10;99.90;;;;;;5025393;28;20948;-68
2023/07/25 08:58:04;;;;;;;14.93;14.33;;;20.10;99.90;;;;;;5025487;28;20472;-68
2023/07/25 09:00:31;;;;;;;15.10;14.30;;;19.90;99.90;;;;;;5026931;28;20509;-67
2023/07/25 09:02:59;;;;;;;14.60;14.00;;;19.90;99.90;;;;;;5023179;28;20456;-68
2023/07/25 09:05:28;;;;;;;15.17;14.57;;;19.50;99.90;;;;;;5025940;28;20512;-68
2023/07/25 09:07:58;;;;;;;15.10;14.50;;;19.60;99.90;;;;;;5023883;28;20857;-68
2023/07/25 09:10:26;;;;;;;15.20;14.50;;;19.60;99.90;;;;;;5022594;28;20461;-68
2023/07/25 09:12:54;;;;;;;17.23;16.10;;;19.60;99.90;;;;;;5029227;28;20468;-67
2023/07/25 09:15:21;;;;;;;14.90;14.30;;;19.80;99.90;;;;;;5026374;28;20492;-67
2023/07/25 09:17:53;;;;;;;15.00;14.40;;;19.90;99.90;;;;;;5020269;28;20889;-68
2023/07/25 09:20:20;;;;;;;15.37;14.70;;;20.10;99.90;;;;;;5024533;28;20483;-68
2023/07/25 09:22:47;;;;;;;49.13;15.50;;;20.40;99.90;;;;;;5022777;28;20468;-67
2023/07/25 09:25:16;;;;;;;15.57;14.87;;;20.70;99.90;;;;;;5025670;28;20553;-67
2023/07/25 09:27:45;;;;;;;15.10;14.40;;;20.60;99.90;;;;;;5022737;28;20954;-68
2023/07/25 09:30:13;;;;;;;15.13;14.53;;;20.50;99.90;;;;;;5029340;28;20507;-67
2023/07/25 09:32:45;;;;;;;15.00;14.40;;;20.30;99.90;;;;;;5023892;28;20558;-68
2023/07/25 09:35:12;;;;;;;14.70;14.10;;;20.00;99.90;;;;;;5021007;28;20555;-68
2023/07/25 09:37:39;;;;;;;14.90;14.30;;;20.10;99.90;;;;;;5027033;28;20695;-66
2023/07/25 09:40:09;;;;;;;15.33;14.63;;;19.90;99.90;;;;;;5025166;28;20971;-67
2023/07/25 09:42:41;;;;;;;14.90;14.30;;;19.80;99.90;;;;;;5022315;28;20600;-67
2023/07/25 09:45:09;;;;;;;15.40;14.80;;;19.90;99.90;;;;;;5025414;28;20569;-66
2023/07/25 09:47:37;;;;;;;14.97;14.37;;;20.10;99.90;;;;;;5025156;28;20918;-68
2023/07/25 09:50:05;;;;;;;14.60;14.00;;;20.00;99.90;;;;;;5021434;28;20477;-66
2023/07/25 09:52:40;;;;;;;15.43;14.67;;;20.00;99.90;;;;;;5027527;28;20464;-67
2023/07/25 09:55:08;;;;;;;14.80;14.20;;;20.20;99.90;;;;;;5023765;28;20590;-67
2023/07/25 09:57:36;;;;;;;15.50;14.80;;;20.60;99.90;;;;;;5025942;28;20464;-66
2023/07/25 10:00:06;;;;;;;15.43;14.83;;;21.00;99.90;;;;;;5016344;28;20574;-67
2023/07/25 10:02:33;;;;;;;16.40;14.80;;;21.00;99.90;;;;;;5019582;28;20492;-67
2023/07/25 10:05:01;;;;;;;15.73;15.03;;;21.10;99.90;;;;;;5015685;28;20551;-67
2023/07/25 10:07:31;;;;;;;15.40;14.80;;;21.40;99.90;;;;;;5025406;28;20484;-67
2023/07/25 10:10:00;;;;;;;16.30;15.40;;;21.80;99.90;;;;;;5019247;28;20998;-67
2023/07/25 10:12:26;;;;;;;16.33;15.63;;;22.10;99.90;;;;;;5025092;28;20508;-67
2023/07/25 10:14:56;;;;;;;15.20;14.60;;;22.20;99.90;;;;;;5024100;28;20579;-67
2023/07/25 10:17:25;;;;;;;18.20;16.33;;;22.20;99.90;;;;;;5022289;28;20555;-68
2023/07/25 10:19:54;;;;;;;16.37;15.60;;;22.00;99.90;;;;;;5018436;28;20539;-67
2023/07/25 10:22:38;;;;;;;15.73;15.03;;;21.90;99.90;;;;;;5025979;28;20455;-66
2023/07/25 10:25:10;;;;;;;15.90;15.20;;;21.90;99.90;;;;;;5023765;28;20464;-66
2023/07/25 10:27:38;;;;;;;16.10;15.40;;;22.70;99.90;;;;;;5019038;28;20579;-66
2023/07/25 10:30:24;;;;;;;16.43;15.73;;;23.20;99.90;;;;;;5024197;28;20468;-67
2023/07/25 10:32:52;;;;;;;16.63;15.83;;;23.00;99.90;;;;;;5025465;28;20461;-65
2023/07/25 10:35:43;;;;;;;16.20;15.50;;;22.70;99.90;;;;;;5017281;28;20622;-67
2023/07/25 10:38:10;;;;;;;15.80;15.20;;;22.10;99.90;;;;;;5022315;28;20511;-67
2023/07/25 10:40:52;;;;;;;15.90;15.30;;;22.70;99.90;;;;;;5025266;28;20448;-67
2023/07/25 10:43:20;;;;;;;17.30;16.50;;;23.10;99.90;;;;;;5022196;28;20527;-67
2023/07/25 10:45:53;;;;;;;16.57;15.87;;;23.30;99.90;;;;;;5020240;28;20453;-66
2023/07/25 10:48:44;;;;;;;16.30;15.60;;;22.80;99.90;;;;;;5024908;28;20484;-66
2023/07/25 10:51:12;;;;;;;16.13;15.43;;;22.30;99.90;;;;;;5016484;28;20489;-68
2023/07/25 10:53:40;;;;;;;16.70;16.00;;;22.30;99.90;;;;;;5023747;28;20531;-67
2023/07/25 10:56:13;;;;;;;16.97;16.17;;;21.70;99.90;;;;;;5020232;28;20484;-67
2023/07/25 10:59:01;;;;;;;16.30;15.60;;;21.30;99.90;;;;;;5024573;28;20484;-66
2023/07/25 11:01:43;;;;;;;18.33;16.60;;;21.40;99.90;;;;;;5025294;28;20572;-66
2023/07/25 11:04:28;;;;;;;17.47;16.37;;;21.60;99.90;;;;;;5024612;28;20821;-67
2023/07/25 11:06:56;;;;;;;17.37;16.57;;;21.30;99.90;;;;;;5024021;28;20986;-67
2023/07/25 11:09:24;;;;;;;16.60;15.80;;;21.20;99.90;;;;;;5015893;28;20995;-66
2023/07/25 11:11:52;;;;;;;17.13;16.13;;;21.80;99.90;;;;;;5026078;28;20579;-66
2023/07/25 11:14:20;;;;;;;16.80;16.00;;;21.80;99.90;;;;;;5023664;28;20546;-67
2023/07/25 11:16:50;;;;;;;16.97;16.17;;;21.50;99.90;;;;;;5025986;28;20560;-67
2023/07/25 11:19:18;;;;;;;16.47;15.47;;;21.40;99.90;;;;;;5017054;28;20475;-68
2023/07/25 11:21:46;;;;;;;16.03;15.33;;;20.90;99.90;;;;;;5019264;28;20829;-67
2023/07/25 11:24:13;;;;;;;16.60;15.80;;;20.60;99.90;;;;;;5020163;28;20841;-67
2023/07/25 11:26:42;;;;;;;16.17;15.47;;;20.30;99.90;;;;;;5025346;28;20469;-66
2023/07/25 11:29:11;;;;;;;17.33;16.20;;;20.00;99.90;;;;;;5025839;28;21070;-67
2023/07/25 11:31:41;;;;;;;16.37;15.47;;;19.60;99.90;;;;;;5021165;28;20461;-66
2023/07/25 11:34:15;;;;;;;16.83;15.67;;;19.30;99.90;;;;;;5023404;28;21024;-66
2023/07/25 11:36:42;;;;;;;15.90;15.20;;;18.70;99.90;;;;;;5022829;28;20457;-68
2023/07/25 11:39:10;;;;;;;15.37;14.47;;;18.20;99.90;;;;;;5019951;28;20476;-67
2023/07/25 11:41:38;;;;;;;15.40;14.70;;;17.80;99.90;;;;;;5023965;28;20456;-66
2023/07/25 11:44:09;;;;;;;15.00;14.30;;;17.80;99.90;;;;;;5025399;28;20754;-67
2023/07/25 11:46:37;;;;;;;14.80;14.20;;;17.70;99.90;;;;;;5020189;28;20804;-68
2023/07/25 11:49:05;;;;;;;14.20;13.60;;;17.60;99.90;;;;;;5023877;28;20936;-67
2023/07/25 11:51:34;;;;;;;15.03;14.33;;;17.40;99.90;;;;;;5020630;28;20833;-67
2023/07/25 11:54:01;;;;;;;14.87;14.27;;;17.50;99.90;;;;;;5014365;28;20461;-68
2023/07/25 11:56:29;;;;;;;15.00;14.30;;;17.40;99.90;;;;;;5024841;28;20457;-66
2023/07/25 11:58:56;;;;;;;14.67;13.97;;;17.40;99.90;;;;;;5022612;28;20465;-66
2023/07/25 12:01:28;;;;;;;14.60;13.90;;;17.30;99.90;;;;;;5018047;28;20489;-67
2023/07/25 12:03:56;;;;;;;14.70;14.10;;;17.30;99.90;;;;;;5024386;28;20586;-67
2023/07/25 12:06:30;;;;;;;13.70;13.20;;;17.30;99.90;;;;;;5015151;28;20469;-66
2023/07/25 12:09:00;;;;;;;14.00;13.40;;;17.50;99.90;;;;;;5023893;28;20495;-67
2023/07/25 12:11:27;;;;;;;14.57;13.97;;;17.70;99.90;;;;;;5018581;28;20457;-67
2023/07/25 12:13:55;;;;;;;14.27;13.67;;;17.80;99.90;;;;;;5018785;28;20518;-67
2023/07/25 12:16:30;;;;;;;14.40;13.70;;;18.00;99.90;;;;;;5024192;28;20481;-67
2023/07/25 12:18:59;;;;;;;14.47;13.87;;;18.10;99.90;;;;;;5017917;28;20460;-68
2023/07/25 12:21:27;;;;;;;14.73;14.03;;;18.20;99.90;;;;;;5017267;28;20471;-67
2023/07/25 12:23:55;;;;;;;14.47;13.87;;;18.30;99.90;;;;;;5025493;28;20468;-67
2023/07/25 12:26:23;;;;;;;14.27;13.57;;;18.50;99.90;;;;;;5020481;28;20893;-68
2023/07/25 12:28:51;;;;;;;14.30;13.70;;;19.00;99.90;;;;;;5024744;28;20500;-68
2023/07/25 12:31:19;;;;;;;15.10;14.50;;;19.30;99.90;;;;;;5020229;28;20465;-67
2023/07/25 12:33:47;;;;;;;14.80;14.20;;;19.60;99.90;;;;;;5018185;28;20464;-68
2023/07/25 12:36:16;;;;;;;14.60;14.00;;;20.20;99.90;;;;;;5019200;28;20995;-68
2023/07/25 12:38:44;;;;;;;14.87;14.23;;;21.00;99.90;;;;;;5024828;28;20464;-67
2023/07/25 12:41:12;;;;;;;15.17;14.57;;;22.30;99.90;;;;;;5024562;28;20555;-67
2023/07/25 12:43:41;;;;;;;15.10;14.50;;;23.00;99.90;;;;;;5024649;28;20826;-68